This is the latest recevied weather packets stored in our database for station/object EA7RX-4. If no packets are shown the sender has not sent any weather packets the latest 10 day(s).
| Time | Temp. | Humidity | Pressure | Rain* | Wind** | Luminosity | Snow |
|---|---|---|---|---|---|---|---|
| 1788009603 | 25.56° C | 26% | 1020 hPa | 0 mm | - | 836 W/m² | - |
| 1788009003 | 26.11° C | 26% | 1020 hPa | 0 mm | - | 849 W/m² | - |
| 1788008403 | 26.11° C | 27% | 1020 hPa | 0 mm | - | 861 W/m² | - |
| 1788007803 | 25.56° C | 28% | 1020 hPa | 0 mm | - | 868 W/m² | - |
| 1788007203 | 25.56° C | 29% | 1020.1 hPa | 0 mm | - | 876 W/m² | - |
| 1788006603 | 26.11° C | 31% | 1019.9 hPa | 0 mm | - | 878 W/m² | - |
| 1788006003 | 24.44° C | 33% | 1020.3 hPa | 0 mm | - | 880 W/m² | - |
| 1788005403 | 25.56° C | 30% | 1020.4 hPa | 0 mm | - | 883 W/m² | - |
| 1788004803 | 24.44° C | 33% | 1020.3 hPa | 0 mm | - | 882 W/m² | - |
| 1788004203 | 23.89° C | 33% | 1020.5 hPa | 0 mm | - | 877 W/m² | - |
| 1788003603 | 23.89° C | 34% | 1020.6 hPa | 0 mm | - | 873 W/m² | - |
| 1788003003 | 23.89° C | 33% | 1020.6 hPa | 0 mm | - | 865 W/m² | - |
| 1788002403 | 23.89° C | 34% | 1020.7 hPa | 0 mm | - | 857 W/m² | - |
| 1788001803 | 23.33° C | 35% | 1020.9 hPa | 0 mm | - | 843 W/m² | - |
| 1788001203 | 23.33° C | 34% | 1020.7 hPa | 0 mm | - | 831 W/m² | - |
| 1788000603 | 23.33° C | 36% | 1021 hPa | 0 mm | - | 815 W/m² | - |
| 1788000003 | 22.78° C | 37% | 1021 hPa | 0 mm | - | 793 W/m² | - |
| 1787999403 | 22.78° C | 38% | 1021.2 hPa | 0 mm | - | 774 W/m² | - |
| 1787998803 | 22.78° C | 38% | 1021.1 hPa | 0 mm | - | 755 W/m² | - |
| 1787998203 | 22.22° C | 40% | 1021.2 hPa | 0 mm | - | 728 W/m² | - |
| 1787997603 | 22.22° C | 39% | 1021.2 hPa | 0 mm | - | 705 W/m² | - |
| 1787997003 | 22.22° C | 40% | 1021.3 hPa | 0 mm | - | 679 W/m² | - |
| 1787996403 | 21.67° C | 42% | 1021 hPa | 0 mm | - | 654 W/m² | - |
| 1787995803 | 20.56° C | 44% | 1021.2 hPa | 0 mm | - | 625 W/m² | - |
| 1787995203 | 20.56° C | 45% | 1021.2 hPa | 0 mm | - | 597 W/m² | - |
* Rain latest hour (hover to see other rain measurements)
** Current wind speed in m/s (hover to see current wind gust speed)